Time;durP1;ratioP1;P1;durP2;ratioP2;P2;SDS_P1;SDS_P2;PMS_P1;PMS_P2;Temp;Humidity;BMP_temperature;BMP_pressure;BME280_temperature;BME280_humidity;BME280_pressure;Samples;Min_cycle;Max_cycle;Signal;HPM_P1;HPM_P2
2023/08/02 00:01:31;;;;;;;5.27;3.57;;;;;;;14.86;100.00;96981.66;6206135;28;20351;-51
2023/08/02 00:04:33;;;;;;;2.70;2.00;;;;;;;14.82;100.00;96980.63;6205773;28;20287;-50
2023/08/02 00:07:35;;;;;;;2.43;1.53;;;;;;;14.76;100.00;96979.91;6189651;28;20236;-52
2023/08/02 00:10:38;;;;;;;2.57;1.30;;;;;;;14.70;100.00;96981.06;6206846;28;20224;-50
2023/08/02 00:13:40;;;;;;;3.73;1.50;;;;;;;14.67;100.00;96976.25;6207707;28;20899;-51
2023/08/02 00:16:42;;;;;;;1.30;1.20;;;;;;;14.58;100.00;96986.81;6203700;28;20323;-48
2023/08/02 00:19:45;;;;;;;4.70;2.30;;;;;;;14.60;100.00;96981.16;6207505;28;20235;-49
2023/08/02 00:22:47;;;;;;;2.67;1.70;;;;;;;14.61;100.00;96990.81;6206371;28;20238;-51
2023/08/02 00:25:51;;;;;;;1.90;1.40;;;;;;;14.61;100.00;96994.28;6207142;28;20228;-49
2023/08/02 00:28:53;;;;;;;2.93;1.77;;;;;;;14.62;100.00;96987.03;6206177;28;20240;-49
2023/08/02 00:31:55;;;;;;;1.97;1.50;;;;;;;14.37;100.00;96959.38;6189533;28;20323;-49
2023/08/02 00:34:58;;;;;;;2.93;1.63;;;;;;;14.54;100.00;96985.00;6205868;28;20338;-49
2023/08/02 00:38:00;;;;;;;2.83;1.90;;;;;;;14.59;100.00;96990.28;6188199;28;20224;-51
2023/08/02 00:41:03;;;;;;;3.33;2.57;;;;;;;14.52;100.00;96985.25;6188586;28;20239;-50
2023/08/02 00:44:06;;;;;;;3.23;2.40;;;;;;;14.45;100.00;96971.38;6184640;28;20267;-52
2023/08/02 00:47:08;;;;;;;4.77;4.17;;;;;;;14.38;100.00;96982.44;6205417;28;20220;-48
2023/08/02 00:50:10;;;;;;;5.07;3.23;;;;;;;14.35;100.00;96985.66;6207264;28;20232;-50
2023/08/02 00:53:13;;;;;;;3.97;1.97;;;;;;;14.34;100.00;96972.56;6205224;28;20243;-50
2023/08/02 00:56:15;;;;;;;3.07;2.03;;;;;;;14.31;100.00;96973.91;6204889;28;20240;-49
2023/08/02 00:59:18;;;;;;;4.63;1.67;;;;;;;14.36;100.00;96968.50;6201181;28;20728;-50
2023/08/02 01:02:20;;;;;;;2.80;1.53;;;;;;;14.65;100.00;96971.19;6206140;28;20230;-50
2023/08/02 01:05:29;;;;;;;2.00;1.50;;;;;;;15.33;100.00;96966.59;6202183;28;20580;-47
2023/08/02 01:08:38;;;;;;;2.40;1.23;;;;;;;15.38;100.00;96969.22;6186441;28;20603;-48
2023/08/02 01:11:52;;;;;;;2.80;1.30;;;;;;;15.25;100.00;96961.88;6201971;28;20239;-49
2023/08/02 01:14:57;;;;;;;1.53;1.17;;;;;;;15.10;100.00;96976.28;6205993;28;20351;-48
2023/08/02 01:18:01;;;;;;;1.90;1.50;;;;;;;14.87;100.00;96956.44;6187560;28;20244;-49
2023/08/02 01:21:04;;;;;;;1.23;1.13;;;;;;;15.03;100.00;96962.44;6186280;28;20620;-50
2023/08/02 01:24:07;;;;;;;1.30;1.17;;;;;;;15.43;98.56;96963.78;6205706;28;20241;-49
2023/08/02 01:27:17;;;;;;;1.07;0.97;;;;;;;15.73;95.96;96960.66;6205452;28;20219;-49
2023/08/02 01:30:25;;;;;;;1.20;1.10;;;;;;;16.15;90.08;96964.25;6204622;28;20351;-51
2023/08/02 01:33:31;;;;;;;1.30;1.10;;;;;;;15.91;93.56;96952.84;6187550;28;20260;-50
2023/08/02 01:36:33;;;;;;;1.40;1.10;;;;;;;15.87;91.03;96941.91;6205553;28;20236;-50
2023/08/02 01:39:35;;;;;;;2.07;1.27;;;;;;;15.79;95.46;96956.00;6201749;28;20737;-51
2023/08/02 01:42:37;;;;;;;2.10;1.20;;;;;;;15.51;97.72;96941.63;6187940;28;20560;-51
2023/08/02 01:45:40;;;;;;;1.50;1.40;;;;;;;15.37;100.00;96957.69;6202019;28;20258;-52
2023/08/02 01:48:42;;;;;;;4.93;1.50;;;;;;;15.17;100.00;96963.31;6206317;28;20330;-52
2023/08/02 01:51:44;;;;;;;2.57;1.30;;;;;;;15.00;100.00;96963.00;6187762;28;20236;-51
2023/08/02 01:54:46;;;;;;;3.47;1.37;;;;;;;14.88;100.00;96968.78;6171211;28;20240;-50
2023/08/02 01:57:51;;;;;;;1.30;1.10;;;;;;;14.75;100.00;96972.16;6180706;28;20233;-50
2023/08/02 02:00:53;;;;;;;1.87;1.50;;;;;;;14.65;100.00;96979.22;6203970;28;20225;-50
2023/08/02 02:03:56;;;;;;;1.93;1.27;;;;;;;14.58;100.00;96978.78;6187413;28;20248;-50
2023/08/02 02:06:58;;;;;;;2.10;1.63;;;;;;;14.55;100.00;96997.31;6205116;28;20244;-50
2023/08/02 02:10:00;;;;;;;2.00;1.40;;;;;;;14.56;100.00;96993.53;6205440;28;20240;-49
2023/08/02 02:13:02;;;;;;;2.70;1.30;;;;;;;14.62;100.00;96989.72;6202358;28;20236;-51
2023/08/02 02:16:05;;;;;;;1.63;1.47;;;;;;;14.67;100.00;96976.25;6205377;28;20856;-49
2023/08/02 02:19:07;;;;;;;2.10;1.20;;;;;;;14.66;100.00;96985.38;6177166;28;20236;-52
2023/08/02 02:22:10;;;;;;;1.20;1.03;;;;;;;14.59;100.00;96985.72;6205451;28;20263;-50
2023/08/02 02:25:12;;;;;;;2.87;1.63;;;;;;;14.52;100.00;96985.25;6205543;28;20240;-51
2023/08/02 02:28:16;;;;;;;3.93;1.70;;;;;;;14.47;100.00;96993.31;6185143;28;20314;-52
2023/08/02 02:31:18;;;;;;;1.40;1.07;;;;;;;14.39;100.00;96986.72;6200592;28;20259;-51
2023/08/02 02:34:20;;;;;;;1.83;1.20;;;;;;;14.27;100.00;96983.59;6207977;28;20244;-50
2023/08/02 02:37:23;;;;;;;2.40;1.27;;;;;;;14.33;100.00;96987.03;6208298;28;20236;-52
2023/08/02 02:40:25;;;;;;;3.07;1.53;;;;;;;14.24;100.00;96980.69;6209505;28;20267;-48
2023/08/02 02:43:27;;;;;;;1.40;1.10;;;;;;;14.19;100.00;96976.19;6209474;28;20228;-50
2023/08/02 02:46:29;;;;;;;3.30;1.50;;;;;;;14.11;100.00;96974.09;6208741;28;20233;-48
2023/08/02 02:49:31;;;;;;;1.97;1.37;;;;;;;14.08;100.00;96985.38;6208777;28;20777;-51
2023/08/02 02:52:34;;;;;;;4.93;1.53;;;;;;;13.93;100.00;96980.94;6209559;28;20232;-49
2023/08/02 02:55:36;;;;;;;2.30;1.47;;;;;;;13.97;100.00;96982.00;6208969;28;20243;-49
2023/08/02 02:58:38;;;;;;;2.57;1.83;;;;;;;13.95;100.00;96981.47;6191567;28;20236;-49
2023/08/02 03:01:41;;;;;;;2.30;1.43;;;;;;;13.91;100.00;96986.59;6191303;28;20240;-52
2023/08/02 03:04:43;;;;;;;3.23;1.80;;;;;;;13.88;100.00;96962.25;6209617;28;20240;-49
2023/08/02 03:07:46;;;;;;;1.60;1.40;;;;;;;13.91;100.00;96991.16;6208245;28;20232;-50
2023/08/02 03:10:48;;;;;;;2.87;1.43;;;;;;;13.91;100.00;96997.31;6209261;28;20237;-51
2023/08/02 03:13:50;;;;;;;1.90;1.20;;;;;;;13.91;100.00;96981.22;6208999;28;20753;-51
2023/08/02 03:16:52;;;;;;;3.43;1.10;;;;;;;13.97;100.00;96967.81;6207909;28;20363;-51
2023/08/02 03:19:55;;;;;;;2.10;1.13;;;;;;;13.93;100.00;96965.66;6208052;28;20244;-51
2023/08/02 03:22:57;;;;;;;3.27;1.47;;;;;;;13.86;100.00;96988.50;6205059;28;20232;-51
2023/08/02 03:25:59;;;;;;;1.07;0.87;;;;;;;14.00;100.00;96994.81;6212207;28;20829;-50
2023/08/02 03:29:02;;;;;;;2.00;1.50;;;;;;;14.27;100.00;96994.31;6205978;28;20244;-50
2023/08/02 03:32:04;;;;;;;1.20;1.10;;;;;;;14.35;100.00;96992.91;6187861;28;20267;-52
2023/08/02 03:35:07;;;;;;;2.97;1.13;;;;;;;14.32;100.00;96978.19;6206135;28;20323;-51
2023/08/02 03:38:10;;;;;;;3.73;1.17;;;;;;;14.27;100.00;96988.16;6203685;28;20290;-50
2023/08/02 03:41:12;;;;;;;1.20;1.00;;;;;;;14.35;100.00;96982.19;6209151;28;20323;-48
2023/08/02 03:44:14;;;;;;;1.30;1.20;;;;;;;14.30;100.00;96987.59;6206164;28;20236;-51
2023/08/02 03:47:17;;;;;;;1.37;1.13;;;;;;;14.26;100.00;96991.94;6206400;28;20225;-50
2023/08/02 03:50:19;;;;;;;2.10;1.30;;;;;;;14.13;100.00;96974.63;6207391;28;20231;-50
2023/08/02 03:53:24;;;;;;;4.20;1.10;;;;;;;14.16;100.00;96998.16;6206144;28;20235;-48
2023/08/02 03:56:26;;;;;;;1.67;1.30;;;;;;;14.09;100.00;97006.53;6208224;28;20599;-50
2023/08/02 03:59:28;;;;;;;2.67;0.97;;;;;;;14.03;100.00;97014.88;6208184;28;20298;-50
2023/08/02 04:02:32;;;;;;;1.37;1.10;;;;;;;14.00;100.00;97008.22;6208744;28;20327;-50
2023/08/02 04:05:34;;;;;;;2.40;0.90;;;;;;;14.03;100.00;97017.56;6204081;28;20232;-50
2023/08/02 04:08:36;;;;;;;2.10;1.07;;;;;;;13.97;100.00;97011.44;6208294;28;20238;-48
2023/08/02 04:11:39;;;;;;;1.00;0.90;;;;;;;13.93;100.00;97007.72;6212699;28;20236;-49
2023/08/02 04:14:41;;;;;;;6.50;1.20;;;;;;;13.86;100.00;97012.59;6206133;28;20212;-46
2023/08/02 04:17:43;;;;;;;1.97;1.10;;;;;;;13.75;100.00;97013.75;6206161;28;20240;-52
2023/08/02 04:20:46;;;;;;;2.03;1.00;;;;;;;13.81;100.00;97024.16;6206341;28;20689;-52
2023/08/02 04:23:50;;;;;;;1.20;1.10;;;;;;;13.82;100.00;97027.63;6204362;28;20718;-51
2023/08/02 04:26:52;;;;;;;0.80;0.80;;;;;;;13.77;100.00;97020.44;6211218;28;20359;-51
2023/08/02 04:29:54;;;;;;;2.17;1.30;;;;;;;13.77;100.00;97020.44;6212814;28;20220;-49
2023/08/02 04:32:57;;;;;;;1.40;1.17;;;;;;;13.76;100.00;97026.06;6206753;28;20610;-50
2023/08/02 04:35:59;;;;;;;1.30;1.20;;;;;;;13.76;100.00;97023.38;6205236;28;20243;-47
2023/08/02 04:39:03;;;;;;;1.40;1.20;;;;;;;13.78;100.00;97027.38;6205731;28;20243;-49
2023/08/02 04:42:06;;;;;;;1.40;1.30;;;;;;;13.73;100.00;97032.75;6207033;28;20279;-52
2023/08/02 04:45:09;;;;;;;1.23;1.13;;;;;;;13.69;100.00;97021.00;6204045;28;20250;-52
2023/08/02 04:48:11;;;;;;;3.83;1.10;;;;;;;13.73;100.00;97023.94;6204428;28;20442;-51
2023/08/02 04:51:13;;;;;;;2.10;1.10;;;;;;;13.68;100.00;97030.91;6204577;28;20237;-49
2023/08/02 04:54:16;;;;;;;1.03;1.00;;;;;;;13.68;100.00;97033.59;6196288;28;20253;-50
2023/08/02 04:57:18;;;;;;;1.80;1.40;;;;;;;13.71;100.00;97042.97;6204207;28;20253;-49
2023/08/02 05:00:20;;;;;;;1.53;1.13;;;;;;;13.72;100.00;97041.06;6205023;28;20217;-50
2023/08/02 05:03:22;;;;;;;4.37;1.70;;;;;;;13.82;100.00;97030.28;6187765;28;20231;-49
2023/08/02 05:06:25;;;;;;;1.30;1.20;;;;;;;13.72;100.00;97025.81;6205964;28;20232;-50
2023/08/02 05:09:27;;;;;;;1.50;1.20;;;;;;;13.73;100.00;97031.97;6203880;28;20227;-51
2023/08/02 05:12:39;;;;;;;1.20;1.10;;;;;;;13.71;100.00;97044.84;6204472;28;20232;-48
2023/08/02 05:15:41;;;;;;;4.23;1.30;;;;;;;13.70;100.00;97048.59;6216703;28;20235;-48
2023/08/02 05:18:44;;;;;;;2.10;1.07;;;;;;;13.71;100.00;97048.31;6208323;28;20757;-51
2023/08/02 05:21:46;;;;;;;4.37;1.20;;;;;;;13.73;100.00;97046.16;6207454;28;20224;-50
2023/08/02 05:24:52;;;;;;;2.90;1.10;;;;;;;13.73;100.00;97054.19;6207132;28;20315;-49
2023/08/02 05:27:54;;;;;;;1.90;1.37;;;;;;;13.68;100.00;97036.25;6207390;28;20711;-50
2023/08/02 05:30:56;;;;;;;1.67;1.57;;;;;;;13.77;100.00;97051.75;6206343;28;20228;-51
2023/08/02 05:33:59;;;;;;;1.43;1.33;;;;;;;13.81;100.00;97058.16;6207366;28;20225;-50
2023/08/02 05:37:02;;;;;;;1.47;1.37;;;;;;;13.85;100.00;97053.84;6208408;28;20224;-50
2023/08/02 05:40:05;;;;;;;2.00;1.20;;;;;;;13.80;100.00;97043.97;6205711;28;20252;-50
2023/08/02 05:43:07;;;;;;;1.80;1.50;;;;;;;13.91;100.00;97058.09;6206395;28;20251;-52
2023/08/02 05:46:09;;;;;;;1.97;1.30;;;;;;;13.96;100.00;97055.38;6206418;28;20386;-50
2023/08/02 05:49:12;;;;;;;2.30;1.60;;;;;;;14.00;100.00;97061.78;6202533;28;20232;-51
2023/08/02 05:52:16;;;;;;;3.00;1.57;;;;;;;14.15;100.00;97067.03;6207123;28;20271;-48
2023/08/02 05:55:19;;;;;;;3.63;1.70;;;;;;;14.33;100.00;97064.72;6189089;28;20232;-52
2023/08/02 05:58:21;;;;;;;1.67;1.57;;;;;;;14.42;100.00;97060.38;6207472;28;20232;-51
2023/08/02 06:01:23;;;;;;;2.00;1.80;;;;;;;14.52;100.00;97059.50;6210723;28;20306;-50
2023/08/02 06:04:25;;;;;;;5.50;2.13;;;;;;;14.63;100.00;97072.56;6211818;28;20605;-48
2023/08/02 06:07:27;;;;;;;2.00;1.80;;;;;;;14.71;100.00;97071.13;6194230;28;20240;-50
2023/08/02 06:10:30;;;;;;;1.63;1.53;;;;;;;14.88;100.00;97084.09;6210751;28;20294;-50
2023/08/02 06:13:33;;;;;;;2.20;1.83;;;;;;;15.02;100.00;97065.44;6211903;28;20232;-49
2023/08/02 06:16:35;;;;;;;4.50;1.77;;;;;;;15.09;100.00;97052.50;6210651;28;20725;-51
2023/08/02 06:19:37;;;;;;;2.37;2.10;;;;;;;15.36;100.00;97063.41;6210506;28;20232;-48
2023/08/02 06:22:41;;;;;;;1.73;1.57;;;;;;;15.47;100.00;97066.81;6193161;28;20366;-52
2023/08/02 06:25:43;;;;;;;4.67;1.83;;;;;;;15.61;100.00;97062.28;6210386;28;20248;-50
2023/08/02 06:28:45;;;;;;;2.73;1.70;;;;;;;15.73;100.00;97057.34;6210620;28;20228;-52
2023/08/02 06:31:48;;;;;;;2.70;1.70;;;;;;;15.92;100.00;97056.53;6210791;28;20320;-46
2023/08/02 06:34:50;;;;;;;2.43;1.53;;;;;;;16.00;100.00;97045.13;6210267;28;20228;-45
2023/08/02 06:37:52;;;;;;;2.37;1.50;;;;;;;16.17;100.00;97045.41;6207154;28;20605;-47
2023/08/02 06:40:56;;;;;;;2.40;1.53;;;;;;;16.48;97.03;97050.28;6208563;28;20720;-46
2023/08/02 06:43:58;;;;;;;2.00;1.80;;;;;;;16.77;91.01;97044.69;6210166;28;20241;-51
2023/08/02 06:47:00;;;;;;;1.73;1.40;;;;;;;17.20;86.03;97039.03;6209732;28;20228;-51
2023/08/02 06:50:03;;;;;;;2.33;1.50;;;;;;;17.24;91.30;97038.13;6208337;28;20240;-52
2023/08/02 06:53:06;;;;;;;4.20;1.50;;;;;;;17.38;84.88;97042.69;6208606;28;20225;-50
2023/08/02 06:56:13;;;;;;;1.90;1.27;;;;;;;17.41;85.58;97047.47;6205257;28;20228;-50
2023/08/02 06:59:15;;;;;;;3.90;1.43;;;;;;;17.51;85.63;97049.94;6208763;28;20457;-48
2023/08/02 07:02:17;;;;;;;2.43;1.63;;;;;;;17.48;83.13;97045.94;6192431;28;20228;-50
2023/08/02 07:05:23;;;;;;;2.40;1.40;;;;;;;17.57;86.46;97042.56;6192488;28;20236;-49
2023/08/02 07:08:25;;;;;;;3.27;1.57;;;;;;;17.63;88.16;97039.44;6208485;28;20781;-52
2023/08/02 07:11:27;;;;;;;1.20;1.10;;;;;;;17.66;88.44;97038.06;6208580;28;20228;-51
2023/08/02 07:14:38;;;;;;;2.03;1.43;;;;;;;17.71;88.81;97041.44;6208496;28;20232;-50
2023/08/02 07:17:40;;;;;;;1.93;1.37;;;;;;;17.72;86.53;97051.09;6208076;28;20229;-50
2023/08/02 07:20:43;;;;;;;1.50;1.40;;;;;;;17.81;83.89;97036.94;6208234;28;20236;-49
2023/08/02 07:23:45;;;;;;;2.60;1.23;;;;;;;18.12;73.57;97064.78;6208155;28;20407;-50
2023/08/02 07:26:47;;;;;;;1.77;1.00;;;;;;;18.26;72.56;97053.94;6209754;28;20228;-51
2023/08/02 07:29:49;;;;;;;2.27;1.40;;;;;;;18.43;71.31;97054.06;6208388;28;20256;-52
2023/08/02 07:32:52;;;;;;;2.50;1.20;;;;;;;18.43;74.67;97054.06;6208316;28;20764;-52
2023/08/02 07:35:54;;;;;;;2.63;1.40;;;;;;;18.33;79.42;97046.25;6208763;28;20248;-52
2023/08/02 07:38:56;;;;;;;4.30;1.53;;;;;;;18.37;78.71;97059.88;6207662;28;20267;-51
2023/08/02 07:41:59;;;;;;;1.70;1.13;;;;;;;18.41;80.02;97050.88;6209293;28;20247;-50
2023/08/02 07:45:07;;;;;;;3.50;1.90;;;;;;;18.48;84.19;97053.94;6208624;28;20329;-50
2023/08/02 07:48:09;;;;;;;1.67;1.27;;;;;;;18.51;83.69;97053.31;6211044;28;20217;-51
2023/08/02 07:51:11;;;;;;;1.43;1.30;;;;;;;18.54;84.67;97046.53;6214484;28;20321;-50
2023/08/02 07:54:14;;;;;;;2.63;1.37;;;;;;;18.54;84.44;97041.91;6213998;28;20628;-51
2023/08/02 07:57:16;;;;;;;3.10;1.50;;;;;;;18.62;86.23;97044.97;6210986;28;20212;-49
2023/08/02 08:00:18;;;;;;;1.50;1.40;;;;;;;18.66;85.22;97043.25;6209257;28;20360;-52
2023/08/02 08:03:20;;;;;;;1.60;1.27;;;;;;;18.69;85.38;97032.66;6207282;28;20426;-50
2023/08/02 08:06:25;;;;;;;1.30;1.20;;;;;;;18.81;85.71;97040.97;6206357;28;20228;-51
2023/08/02 08:09:28;;;;;;;1.40;1.30;;;;;;;18.93;85.91;97040.41;6210586;28;20228;-50
2023/08/02 08:12:30;;;;;;;1.50;1.30;;;;;;;18.99;79.48;97025.66;6208662;28;20228;-53
2023/08/02 08:15:32;;;;;;;2.40;1.10;;;;;;;19.18;78.08;97030.00;6207143;28;20594;-51
2023/08/02 08:18:36;;;;;;;2.73;1.40;;;;;;;19.26;82.92;97026.50;6208720;28;20600;-50
2023/08/02 08:21:38;;;;;;;1.73;1.00;;;;;;;19.20;77.08;97014.28;6206788;28;20272;-50
2023/08/02 08:24:41;;;;;;;3.07;1.40;;;;;;;19.41;81.15;97019.88;6207300;28;20354;-52
2023/08/02 08:27:43;;;;;;;2.03;1.37;;;;;;;19.45;80.96;97015.44;6189271;28;20235;-51
2023/08/02 08:30:45;;;;;;;1.53;1.20;;;;;;;19.49;82.70;97011.00;6206726;28;20319;-50
2023/08/02 08:33:47;;;;;;;1.87;1.37;;;;;;;19.55;80.55;97013.22;6205514;28;20228;-49
2023/08/02 08:36:50;;;;;;;1.37;1.27;;;;;;;19.56;80.71;97020.25;6201374;28;20231;-51
2023/08/02 08:39:52;;;;;;;1.70;1.47;;;;;;;19.65;77.68;97009.44;6200531;28;20240;-51
2023/08/02 08:43:14;;;;;;;3.13;1.63;;;;;;;19.70;77.44;97014.69;6204664;28;20639;-50
2023/08/02 08:46:18;;;;;;;1.50;1.40;;;;;;;19.78;79.42;97022.03;6204663;28;20236;-49
2023/08/02 08:49:20;;;;;;;2.23;1.60;;;;;;;19.75;69.92;97011.88;6205253;28;20609;-50
2023/08/02 08:52:22;;;;;;;2.20;1.40;;;;;;;19.70;72.57;96990.38;6204840;28;20239;-51
2023/08/02 08:55:28;;;;;;;1.40;1.30;;;;;;;19.81;76.34;97010.59;6205287;28;20585;-53
2023/08/02 08:58:36;;;;;;;2.13;1.70;;;;;;;19.84;73.80;96998.34;6200698;28;20378;-52
2023/08/02 09:01:39;;;;;;;1.60;1.50;;;;;;;19.99;76.51;97005.16;6205460;28;20331;-52
2023/08/02 09:04:42;;;;;;;1.60;1.50;;;;;;;19.98;77.67;97003.59;6204293;28;20342;-53
2023/08/02 09:07:45;;;;;;;2.93;1.47;;;;;;;19.95;76.72;97004.22;6187913;28;20236;-52
2023/08/02 09:10:47;;;;;;;1.50;1.40;;;;;;;20.11;70.08;96997.22;6205832;28;20326;-51
2023/08/02 09:14:11;;;;;;;2.53;1.20;;;;;;;20.30;61.71;96989.56;6204425;28;20333;-51
2023/08/02 09:17:15;;;;;;;2.50;1.40;;;;;;;20.44;67.49;96983.94;6204739;28;20237;-50
2023/08/02 09:20:20;;;;;;;2.00;1.80;;;;;;;20.52;68.31;96968.84;6204914;28;20487;-53
2023/08/02 09:23:22;;;;;;;2.27;1.27;;;;;;;20.63;70.25;96972.75;6200853;28;20252;-49
2023/08/02 09:26:24;;;;;;;3.00;1.83;;;;;;;20.58;74.09;96973.72;6205217;28;20247;-53
2023/08/02 09:29:43;;;;;;;2.20;1.40;;;;;;;20.56;75.36;96962.44;6203713;28;20228;-51
2023/08/02 09:32:58;;;;;;;2.87;1.40;;;;;;;20.59;76.82;96956.41;6201366;28;20370;-50
2023/08/02 09:36:01;;;;;;;1.70;1.30;;;;;;;20.66;74.31;96952.38;6207033;28;20236;-51
2023/08/02 09:39:14;;;;;;;2.90;1.60;;;;;;;20.68;72.15;96952.84;6188563;28;20223;-51
2023/08/02 09:42:21;;;;;;;2.23;1.10;;;;;;;20.73;73.83;96958.06;6206801;28;20244;-53
2023/08/02 09:45:32;;;;;;;1.40;1.30;;;;;;;20.78;72.88;96960.59;6206640;28;20710;-50
2023/08/02 09:48:35;;;;;;;1.40;1.30;;;;;;;20.75;61.56;96934.19;6205677;28;20351;-52
2023/08/02 09:51:42;;;;;;;3.13;1.30;;;;;;;20.92;66.78;96925.19;6206123;28;20384;-51
2023/08/02 09:54:45;;;;;;;1.93;1.53;;;;;;;20.98;69.98;96934.69;6189131;28;20244;-51
2023/08/02 09:57:48;;;;;;;5.03;1.57;;;;;;;21.02;72.41;96944.56;6202908;28;20240;-51
2023/08/02 10:00:51;;;;;;;2.37;1.50;;;;;;;21.18;69.40;96941.28;6205920;28;20318;-52
2023/08/02 10:03:55;;;;;;;1.40;1.20;;;;;;;21.18;66.77;96923.13;6206183;28;20243;-48
2023/08/02 10:07:03;;;;;;;2.60;1.40;;;;;;;21.38;64.59;96925.09;6181659;28;20248;-51
2023/08/02 10:10:12;;;;;;;2.13;1.13;;;;;;;21.54;65.26;96922.56;6206282;28;20730;-52
2023/08/02 10:13:25;;;;;;;1.43;1.30;;;;;;;21.64;65.26;96915.94;6203149;28;20236;-53
2023/08/02 10:16:28;;;;;;;1.43;1.20;;;;;;;21.52;69.48;96902.31;6205942;28;20742;-52
2023/08/02 10:19:33;;;;;;;2.00;1.23;;;;;;;21.63;67.14;96908.94;6211283;28;20327;-53
2023/08/02 10:22:39;;;;;;;3.90;1.10;;;;;;;21.63;60.25;96911.66;6205993;28;20243;-51
2023/08/02 10:25:42;;;;;;;2.47;1.10;;;;;;;21.78;62.34;96916.47;6206453;28;20324;-55
2023/08/02 10:28:45;;;;;;;2.50;1.27;;;;;;;21.92;60.59;96894.50;6207033;28;20239;-50
2023/08/02 10:31:47;;;;;;;3.27;1.30;;;;;;;21.97;61.49;96910.56;6201632;28;20260;-53
2023/08/02 10:34:51;;;;;;;1.13;1.03;;;;;;;22.02;61.65;96890.53;6207643;28;20244;-53
2023/08/02 10:37:54;;;;;;;1.50;1.20;;;;;;;21.98;64.55;96876.06;6189354;28;20237;-51
2023/08/02 10:41:10;;;;;;;3.10;1.40;;;;;;;22.08;62.05;96881.06;6206079;28;20236;-52
2023/08/02 10:44:13;;;;;;;2.53;1.10;;;;;;;22.16;62.37;96877.47;6204702;28;20648;-52
2023/08/02 10:47:31;;;;;;;1.33;1.10;;;;;;;22.28;61.41;96868.59;6209750;28;20232;-53
2023/08/02 10:50:47;;;;;;;1.40;1.20;;;;;;;22.37;61.31;96866.56;6209547;28;20370;-53
2023/08/02 10:54:10;;;;;;;2.67;1.20;;;;;;;22.40;63.39;96852.31;6209050;28;20236;-53
2023/08/02 10:57:14;;;;;;;3.20;1.13;;;;;;;22.44;62.94;96847.00;6206954;28;20367;-51
2023/08/02 11:00:18;;;;;;;1.73;1.10;;;;;;;22.47;62.33;96841.69;6210109;28;20603;-53
2023/08/02 11:03:30;;;;;;;1.20;1.10;;;;;;;22.61;65.67;96836.72;6207947;28;20765;-53
2023/08/02 11:06:34;;;;;;;0.83;0.80;;;;;;;22.72;63.88;96830.81;6210012;28;20772;-54
2023/08/02 11:09:39;;;;;;;1.63;1.20;;;;;;;22.80;66.51;96835.31;6206140;28;20575;-53
2023/08/02 11:12:52;;;;;;;1.30;1.00;;;;;;;22.88;66.51;96805.34;6210466;28;20240;-50
2023/08/02 11:16:05;;;;;;;1.47;1.37;;;;;;;22.91;70.30;96793.03;6205768;28;20235;-51
2023/08/02 11:19:11;;;;;;;3.72;1.08;;;;;;;23.01;60.68;96797.19;6208708;28;20233;-53
2023/08/02 11:25:34;;;;;;;1.63;1.20;;;;;;;23.00;62.62;96785.50;6241354;28;20275;-93
2023/08/02 11:28:42;;;;;;;0.95;0.85;;;;;;;22.75;62.38;96733.16;6241237;28;20254;-94
2023/08/02 11:31:45;;;;;;;1.70;1.10;;;;;;;22.08;63.09;96604.41;6193324;28;20739;-93
2023/08/02 11:34:51;;;;;;;1.00;0.80;;;;;;;22.52;61.04;96656.88;6213242;28;20626;-95
2023/08/02 11:38:13;;;;;;;1.27;1.00;;;;;;;23.09;60.14;96742.69;6229349;28;20243;-94
2023/08/02 11:41:31;;;;;;;1.50;1.10;;;;;;;23.00;54.32;96662.47;6223441;28;20257;-94
2023/08/02 11:44:55;;;;;;;1.83;1.00;;;;;;;22.71;51.37;96612.00;6225167;28;20223;-95
2023/08/02 11:48:31;;;;;;;1.77;0.90;;;;;;;22.52;55.68;96616.16;6233594;28;20220;-96
2023/08/02 11:51:54;;;;;;;1.65;0.88;;;;;;;22.40;54.02;96551.84;6225266;28;20292;-95
2023/08/02 11:55:14;;;;;;;1.83;0.80;;;;;;;23.65;53.85;96717.41;6218286;28;20212;-96
2023/08/02 11:58:51;;;;;;;1.17;0.90;;;;;;;22.94;50.62;96576.94;6210820;28;20239;-94
2023/08/02 12:02:36;;;;;;;4.43;1.20;;;;;;;23.97;55.75;96711.94;6222147;28;20227;-94
2023/08/02 12:06:12;;;;;;;0.90;0.90;;;;;;;23.27;54.14;96625.53;6249493;28;20290;-96
2023/08/02 12:09:50;;;;;;;1.42;0.63;;;;;;;22.94;49.89;96566.88;6236896;28;20241;-94
2023/08/02 12:13:04;;;;;;;;;;;;;;;;;;;;;
2023/08/02 12:16:20;;;;;;;0.90;0.90;;;;;;;23.00;56.61;96551.88;6221966;28;20235;-93
2023/08/02 12:19:40;;;;;;;1.02;0.90;;;;;;;23.63;49.71;96600.00;6189171;28;20236;-94
2023/08/02 12:22:49;;;;;;;3.78;0.90;;;;;;;23.04;51.67;96497.66;6197447;28;20257;-94
2023/08/02 12:25:52;;;;;;;0.85;0.77;;;;;;;23.28;50.98;96523.84;6209015;28;20243;-94
2023/08/02 12:28:55;;;;;;;2.05;0.88;;;;;;;23.99;51.84;96622.59;6198386;28;20239;-94
2023/08/02 12:31:57;;;;;;;2.28;0.90;;;;;;;24.04;50.21;96595.94;6217785;28;20235;-95
2023/08/02 12:35:11;;;;;;;1.08;0.93;;;;;;;23.66;48.38;96534.06;6201324;28;20228;-94
2023/08/02 12:38:14;;;;;;;2.17;1.02;;;;;;;23.99;49.11;96563.56;6191593;28;20227;-94
2023/08/02 12:41:16;;;;;;;1.02;0.98;;;;;;;24.43;49.66;96626.72;6215101;28;20238;-94
2023/08/02 12:44:19;;;;;;;2.95;1.05;;;;;;;24.27;51.41;96566.06;6214693;28;20235;-94
2023/08/02 12:47:22;;;;;;;1.23;1.00;;;;;;;23.94;48.44;96514.88;6208193;28;20238;-94
2023/08/02 12:50:32;;;;;;;1.60;1.08;;;;;;;24.12;49.00;96518.72;6193039;28;20212;-95
2023/08/02 12:53:40;;;;;;;0.85;0.73;;;;;;;24.87;47.46;96634.56;6197444;28;20243;-93
2023/08/02 12:56:51;;;;;;;2.95;1.13;;;;;;;24.42;49.95;96594.38;6214579;28;20247;-94
2023/08/02 12:59:54;;;;;;;2.13;1.00;;;;;;;23.79;48.17;96526.56;6195499;28;20227;-96
2023/08/02 13:02:56;;;;;;;1.10;0.95;;;;;;;24.11;50.66;96590.63;6213443;28;20235;-94
2023/08/02 13:05:59;;;;;;;2.35;1.02;;;;;;;24.10;50.81;96599.94;6224631;28;20242;-94
2023/08/02 13:09:02;;;;;;;0.88;0.85;;;;;;;23.40;48.67;96508.25;6201372;28;20228;-94
2023/08/02 13:12:07;;;;;;;1.75;1.30;;;;;;;23.24;50.68;96466.69;6204427;28;20707;-94
2023/08/02 13:15:12;;;;;;;1.35;1.25;;;;;;;23.85;51.45;96574.91;6194918;28;20212;-94
2023/08/02 13:18:14;;;;;;;1.42;0.80;;;;;;;24.08;49.59;96594.03;6210229;28;20635;-93
2023/08/02 13:21:19;;;;;;;2.67;0.95;;;;;;;23.73;48.37;96555.97;6213343;28;20215;-95
2023/08/02 13:24:22;;;;;;;1.58;1.10;;;;;;;23.27;52.35;96489.66;6213139;28;20239;-94
2023/08/02 13:27:32;;;;;;;3.40;1.05;;;;;;;24.12;52.41;96613.19;6206514;28;20745;-94
2023/08/02 13:30:45;;;;;;;1.95;0.90;;;;;;;24.12;52.72;96608.53;6221715;28;20243;-95
2023/08/02 13:33:51;;;;;;;3.58;1.00;;;;;;;23.46;54.01;96533.22;6216416;28;20303;-95
2023/08/02 13:36:57;;;;;;;0.88;0.68;;;;;;;23.58;51.72;96559.50;6222104;28;20287;-95
2023/08/02 13:40:01;;;;;;;1.50;0.98;;;;;;;23.56;54.48;96562.56;6217377;28;20254;-96
2023/08/02 13:43:09;;;;;;;2.15;1.08;;;;;;;22.62;52.39;96414.00;6232442;28;20236;-95
2023/08/02 13:46:16;;;;;;;1.63;1.05;;;;;;;23.33;53.53;96518.94;6221673;28;20258;-94
2023/08/02 13:49:25;;;;;;;0.90;0.90;;;;;;;22.63;53.07;96413.66;6215623;28;20277;-94
2023/08/02 13:52:29;;;;;;;0.80;0.80;;;;;;;23.88;51.02;96570.69;6233486;23;20709;-56
2023/08/02 13:55:32;;;;;;;1.00;0.82;;;;;;;23.87;52.55;96575.34;6146002;28;20246;-59
2023/08/02 13:58:34;;;;;;;2.75;1.00;;;;;;;23.93;54.10;96570.41;6143558;28;20254;-59
2023/08/02 14:01:36;;;;;;;0.90;0.77;;;;;;;23.93;55.40;96570.41;6146191;28;20230;-59
2023/08/02 14:04:38;;;;;;;2.33;0.77;;;;;;;23.97;53.51;96568.56;6145296;28;20249;-58
2023/08/02 14:07:41;;;;;;;2.13;1.20;;;;;;;24.18;48.97;96577.16;6145806;28;20246;-58
2023/08/02 14:10:45;;;;;;;7.78;4.72;;;;;;;24.26;48.14;96569.16;6144553;28;20237;-59
2023/08/02 14:13:47;;;;;;;2.40;2.00;;;;;;;24.35;49.43;96580.63;6143643;28;20245;-61
2023/08/02 14:16:49;;;;;;;2.45;1.15;;;;;;;24.26;50.98;96577.31;6144477;28;20241;-58
2023/08/02 14:19:52;;;;;;;1.10;0.90;;;;;;;24.16;50.94;96567.78;6147748;28;20234;-59
2023/08/02 14:22:54;;;;;;;2.95;1.42;;;;;;;24.13;52.29;96573.94;6149924;28;20234;-60
2023/08/02 14:25:56;;;;;;;1.17;1.00;;;;;;;24.09;52.94;96570.38;6150861;28;20265;-63
2023/08/02 14:28:58;;;;;;;1.42;1.08;;;;;;;24.04;53.59;96566.00;6149540;28;20401;-58
2023/08/02 14:32:01;;;;;;;1.52;0.80;;;;;;;23.92;54.22;96553.28;6149193;28;20614;-58